Time;durP1;ratioP1;P1;durP2;ratioP2;P2;SDS_P1;SDS_P2;PMS_P1;PMS_P2;Temp;Humidity;BMP_temperature;BMP_pressure;BME280_temperature;BME280_humidity;BME280_pressure;Samples;Min_cycle;Max_cycle;Signal;HPM_P1;HPM_P2
2022/03/27 00:00:48;;;;;;;;;;;;;;;;;;5055099;28;19961;-80
2022/03/27 00:03:16;;;;;;;;;;;;;;;;;;5054530;28;19956;-79
2022/03/27 00:05:44;;;;;;;;;;;;;;;;;;5053124;28;19947;-79
2022/03/27 00:08:15;;;;;;;;;;;;;;;;;;5055661;28;20047;-80
2022/03/27 00:13:33;;;;;;;;;;;;;;;;;;5052033;28;20040;-80
2022/03/27 00:16:01;;;;;;;;;;;;;;;;;;5053919;28;20276;-79
2022/03/27 00:18:30;;;;;;;;;;;;;;;;;;5047601;28;19998;-80
2022/03/27 00:20:59;;;;;;;;;;;;;;;;;;5051818;28;20044;-77
2022/03/27 00:23:31;;;;;;;;;;;;;;;;;;5052774;28;19954;-77
2022/03/27 00:25:59;;;;;;;;;;;;;;;;;;5027623;28;19972;-79
2022/03/27 00:28:32;;;;;;;;;;;;;;;;;;5050017;28;20026;-80
2022/03/27 00:31:02;;;;;;;;;;;;;;;;;;5066256;28;20058;-80
2022/03/27 00:33:30;;;;;;;;;;;;;;;;;;5052600;28;19944;-79
2022/03/27 00:35:58;;;;;;;;;;;;;;;;;;5054546;28;20420;-80
2022/03/27 00:38:29;;;;;;;;;;;;;;;;;;5054400;28;20404;-79
2022/03/27 00:40:59;;;;;;;;;;;;;;;;;;5053984;28;19954;-81
2022/03/27 00:43:27;;;;;;;;;;;;;;;;;;5054906;28;19960;-76
2022/03/27 00:45:56;;;;;;;;;;;;;;;;;;5053479;28;19949;-81
2022/03/27 00:48:24;;;;;;;;;;;;;;;;;;5054361;28;20659;-76
2022/03/27 00:50:52;;;;;;;;;;;;;;;;;;5053675;28;20309;-76
2022/03/27 00:53:21;;;;;;;;;;;;;;;;;;5052157;28;20042;-79
2022/03/27 00:55:51;;;;;;;;;;;;;;;;;;5054595;28;19957;-77
2022/03/27 00:58:20;;;;;;;;;;;;;;;;;;5053616;28;19945;-76
2022/03/27 01:00:48;;;;;;;;;;;;;;;;;;5053749;28;20394;-77
2022/03/27 01:03:16;;;;;;;;;;;;;;;;;;5054185;28;20035;-76
2022/03/27 01:05:44;;;;;;;;;;;;;;;;;;5053175;28;20328;-79
2022/03/27 01:08:12;;;;;;;;;;;;;;;;;;5053516;28;19971;-77
2022/03/27 01:10:40;;;;;;;;;;;;;;;;;;5054185;28;19954;-77
2022/03/27 01:13:08;;;;;;;;;;;;;;;;;;5055284;28;19951;-79
2022/03/27 01:15:36;;;;;;;;;;;;;;;;;;5054917;28;19942;-80
2022/03/27 01:18:09;;;;;;;;;;;;;;;;;;5054606;28;19962;-78
2022/03/27 01:20:36;;;;;;;;;;;;;;;;;;5053100;28;20004;-80
2022/03/27 01:23:04;;;;;;;;;;;;;;;;;;5054909;28;20024;-80
2022/03/27 01:25:31;;;;;;;;;;;;;;;;;;5054403;28;20398;-80
2022/03/27 01:28:05;;;;;;;;;;;;;;;;;;5037677;28;19957;-80
2022/03/27 01:30:33;;;;;;;;;;;;;;;;;;5050815;28;20056;-80
2022/03/27 01:33:05;;;;;;;;;;;;;;;;;;5054721;28;19947;-78
2022/03/27 01:35:32;;;;;;;;;;;;;;;;;;5069999;28;20421;-79
2022/03/27 01:38:01;;;;;;;;;;;;;;;;;;5047920;28;20477;-78
2022/03/27 01:40:30;;;;;;;;;;;;;;;;;;5033308;28;19950;-80
2022/03/27 01:43:01;;;;;;;;;;;;;;;;;;5033952;28;20026;-77
2022/03/27 01:45:32;;;;;;;;;;;;;;;;;;5034135;28;20050;-80
2022/03/27 01:48:04;;;;;;;;;;;;;;;;;;5034625;28;19956;-77
2022/03/27 01:50:32;;;;;;;;;;;;;;;;;;5016348;28;19951;-77
2022/03/27 01:53:05;;;;;;;;;;;;;;;;;;5034507;28;20030;-79
2022/03/27 01:55:33;;;;;;;;;;;;;;;;;;5033371;28;19950;-80
2022/03/27 01:58:01;;;;;;;;;;;;;;;;;;5034367;28;19950;-80
2022/03/27 02:00:31;;;;;;;;;;;;;;;;;;5034414;28;20366;-80
2022/03/27 02:03:03;;;;;;;;;;;;;;;;;;5033150;28;19981;-78
2022/03/27 02:05:34;;;;;;;;;;;;;;;;;;5039658;28;19950;-77
2022/03/27 02:08:05;;;;;;;;;;;;;;;;;;5054498;28;20413;-79
2022/03/27 02:10:53;;;;;;;;;;;;;;;;;;5066281;28;19957;-76
2022/03/27 02:13:22;;;;;;;;;;;;;;;;;;5054213;28;19977;-78
2022/03/27 02:15:53;;;;;;;;;;;;;;;;;;5053658;28;19959;-78
2022/03/27 02:18:21;;;;;;;;;;;;;;;;;;5068099;28;19985;-78
2022/03/27 02:20:50;;;;;;;;;;;;;;;;;;5069398;28;19959;-78
2022/03/27 02:23:20;;;;;;;;;;;;;;;;;;5054083;28;19949;-76
2022/03/27 02:25:48;;;;;;;;;;;;;;;;;;5068740;28;19960;-76
2022/03/27 02:28:16;;;;;;;;;;;;;;;;;;5053880;28;19953;-78
2022/03/27 02:30:45;;;;;;;;;;;;;;;;;;5051861;28;19957;-77
2022/03/27 02:33:13;;;;;;;;;;;;;;;;;;5069153;28;19944;-76
2022/03/27 02:35:45;;;;;;;;;;;;;;;;;;5053283;28;19954;-78
2022/03/27 02:38:12;;;;;;;;;;;;;;;;;;5053545;28;19959;-80
2022/03/27 02:40:40;;;;;;;;;;;;;;;;;;5052972;28;19946;-76
2022/03/27 02:43:09;;;;;;;;;;;;;;;;;;5053309;28;19946;-76
2022/03/27 02:45:41;;;;;;;;;;;;;;;;;;5069077;28;19954;-80
2022/03/27 02:48:08;;;;;;;;;;;;;;;;;;5068413;28;20440;-76
2022/03/27 02:50:39;;;;;;;;;;;;;;;;;;5053384;28;19956;-80
2022/03/27 02:53:06;;;;;;;;;;;;;;;;;;5051848;28;19975;-79
2022/03/27 02:55:34;;;;;;;;;;;;;;;;;;5053508;28;20431;-77
2022/03/27 02:58:01;;;;;;;;;;;;;;;;;;5053279;28;19951;-79
2022/03/27 03:00:32;;;;;;;;;;;;;;;;;;5052807;28;20029;-79
2022/03/27 03:03:00;;;;;;;;;;;;;;;;;;5052518;28;20046;-79
2022/03/27 03:05:31;;;;;;;;;;;;;;;;;;5068490;28;20019;-78
2022/03/27 03:08:00;;;;;;;;;;;;;;;;;;5053528;28;19947;-76
2022/03/27 03:10:29;;;;;;;;;;;;;;;;;;5052595;28;19954;-78
2022/03/27 03:12:58;;;;;;;;;;;;;;;;;;5053117;28;20056;-78
2022/03/27 03:15:28;;;;;;;;;;;;;;;;;;5068509;28;19970;-80
2022/03/27 03:17:56;;;;;;;;;;;;;;;;;;5052496;28;19954;-79
2022/03/27 03:20:25;;;;;;;;;;;;;;;;;;5052670;28;19952;-76
2022/03/27 03:22:53;;;;;;;;;;;;;;;;;;5053352;28;19942;-76
2022/03/27 03:25:20;;;;;;;;;;;;;;;;;;5068240;28;19951;-76
2022/03/27 03:27:48;;;;;;;;;;;;;;;;;;5068482;28;19955;-77
2022/03/27 03:30:24;;;;;;;;;;;;;;;;;;5052590;28;19959;-79
2022/03/27 03:32:53;;;;;;;;;;;;;;;;;;5056852;28;20415;-79
2022/03/27 03:35:23;;;;;;;;;;;;;;;;;;5056699;28;19954;-77
2022/03/27 03:38:09;;;;;;;;;;;;;;;;;;5056078;28;19949;-79
2022/03/27 03:40:41;;;;;;;;;;;;;;;;;;5056334;28;20040;-78
2022/03/27 03:43:11;;;;;;;;;;;;;;;;;;5056697;28;19955;-78
2022/03/27 03:45:38;;;;;;;;;;;;;;;;;;5056680;28;19955;-77
2022/03/27 03:48:06;;;;;;;;;;;;;;;;;;5056859;28;20461;-79
2022/03/27 03:50:35;;;;;;;;;;;;;;;;;;5055618;28;19948;-77
2022/03/27 03:53:03;;;;;;;;;;;;;;;;;;5056510;28;20522;-77
2022/03/27 03:55:34;;;;;;;;;;;;;;;;;;5056442;28;19984;-77
2022/03/27 03:58:02;;;;;;;;;;;;;;;;;;5053744;28;19946;-77
2022/03/27 04:00:31;;;;;;;;;;;;;;;;;;5054553;28;19952;-80
2022/03/27 04:02:59;;;;;;;;;;;;;;;;;;5040565;28;20005;-77
2022/03/27 04:05:28;;;;;;;;;;;;;;;;;;5036354;28;19960;-77
2022/03/27 04:07:57;;;;;;;;;;;;;;;;;;5036880;28;20393;-81
2022/03/27 04:10:27;;;;;;;;;;;;;;;;;;5036146;28;19955;-78
2022/03/27 04:13:01;;;;;;;;;;;;;;;;;;5036270;28;19954;-81
2022/03/27 04:15:30;;;;;;;;;;;;;;;;;;5036331;28;19950;-79
2022/03/27 04:18:17;;;;;;;;;;;;;;;;;;5035844;28;19956;-78
2022/03/27 04:20:45;;;;;;;;;;;;;;;;;;5034499;28;20322;-78
2022/03/27 04:23:14;;;;;;;;;;;;;;;;;;5036106;28;19954;-77
2022/03/27 04:25:43;;;;;;;;;;;;;;;;;;5035966;28;19959;-77
2022/03/27 04:28:11;;;;;;;;;;;;;;;;;;5034981;28;20081;-81
2022/03/27 04:30:39;;;;;;;;;;;;;;;;;;5018014;28;19966;-77
2022/03/27 04:33:08;;;;;;;;;;;;;;;;;;5035983;28;19990;-77
2022/03/27 04:35:36;;;;;;;;;;;;;;;;;;5034453;28;20001;-78
2022/03/27 04:38:05;;;;;;;;;;;;;;;;;;5036397;28;19954;-78
2022/03/27 04:40:33;;;;;;;;;;;;;;;;;;5050492;28;19960;-77
2022/03/27 04:43:08;;;;;;;;;;;;;;;;;;5035136;28;20005;-77
2022/03/27 04:45:35;;;;;;;;;;;;;;;;;;5035768;28;19957;-80
2022/03/27 04:48:02;;;;;;;;;;;;;;;;;;5035795;28;20014;-80
2022/03/27 04:50:32;;;;;;;;;;;;;;;;;;5034211;28;19943;-80
2022/03/27 04:53:00;;;;;;;;;;;;;;;;;;5035433;28;20097;-77
2022/03/27 04:55:30;;;;;;;;;;;;;;;;;;5035453;28;19965;-77
2022/03/27 04:57:59;;;;;;;;;;;;;;;;;;5035747;28;19978;-81
2022/03/27 05:00:28;;;;;;;;;;;;;;;;;;5033610;28;19955;-80
2022/03/27 05:02:57;;;;;;;;;;;;;;;;;;5035841;28;20403;-80
2022/03/27 05:05:26;;;;;;;;;;;;;;;;;;5035273;28;19943;-81
2022/03/27 05:07:53;;;;;;;;;;;;;;;;;;5035478;28;20330;-78
2022/03/27 05:10:24;;;;;;;;;;;;;;;;;;5033615;28;20048;-77
2022/03/27 05:12:52;;;;;;;;;;;;;;;;;;5035123;28;20331;-76
2022/03/27 05:15:21;;;;;;;;;;;;;;;;;;5033714;28;20034;-80
2022/03/27 05:17:49;;;;;;;;;;;;;;;;;;5035084;28;19972;-79
2022/03/27 05:20:19;;;;;;;;;;;;;;;;;;5033310;28;19956;-81
2022/03/27 05:22:47;;;;;;;;;;;;;;;;;;5035171;28;20405;-80
2022/03/27 05:25:16;;;;;;;;;;;;;;;;;;5033714;28;19943;-78
2022/03/27 05:27:44;;;;;;;;;;;;;;;;;;5035192;28;19955;-80
2022/03/27 05:30:12;;;;;;;;;;;;;;;;;;5034299;28;19948;-81
2022/03/27 05:32:41;;;;;;;;;;;;;;;;;;5035122;28;19954;-80
2022/03/27 05:35:11;;;;;;;;;;;;;;;;;;5034692;28;19945;-77
2022/03/27 05:37:40;;;;;;;;;;;;;;;;;;5033792;28;19943;-78
2022/03/27 05:40:09;;;;;;;;;;;;;;;;;;5034480;28;19954;-80
2022/03/27 05:42:36;;;;;;;;;;;;;;;;;;5033813;28;20393;-77
2022/03/27 05:45:07;;;;;;;;;;;;;;;;;;5033855;28;19945;-81
2022/03/27 05:47:35;;;;;;;;;;;;;;;;;;5034865;28;19947;-78
2022/03/27 05:50:04;;;;;;;;;;;;;;;;;;5034516;28;19956;-80
2022/03/27 05:52:34;;;;;;;;;;;;;;;;;;5034529;28;19951;-77
2022/03/27 05:55:02;;;;;;;;;;;;;;;;;;5033850;28;19947;-80
2022/03/27 05:57:30;;;;;;;;;;;;;;;;;;5034353;28;20441;-78
2022/03/27 06:00:00;;;;;;;;;;;;;;;;;;5033802;28;19946;-80
2022/03/27 06:02:27;;;;;;;;;;;;;;;;;;5034549;28;19948;-80
2022/03/27 06:04:58;;;;;;;;;;;;;;;;;;5034210;28;19950;-80
2022/03/27 06:07:26;;;;;;;;;;;;;;;;;;5016215;28;20349;-77
2022/03/27 06:09:54;;;;;;;;;;;;;;;;;;5033388;28;19949;-77
2022/03/27 06:12:22;;;;;;;;;;;;;;;;;;5032719;28;19967;-78
2022/03/27 06:14:53;;;;;;;;;;;;;;;;;;5033398;28;19961;-80
2022/03/27 06:17:21;;;;;;;;;;;;;;;;;;5032889;28;19962;-77
2022/03/27 06:19:50;;;;;;;;;;;;;;;;;;5033238;28;19957;-80
2022/03/27 06:22:18;;;;;;;;;;;;;;;;;;5034366;28;20297;-80
2022/03/27 06:24:46;;;;;;;;;;;;;;;;;;5033467;28;19952;-78
2022/03/27 06:27:15;;;;;;;;;;;;;;;;;;5033595;28;19956;-78
2022/03/27 06:29:44;;;;;;;;;;;;;;;;;;5052124;28;19950;-78
2022/03/27 06:32:12;;;;;;;;;;;;;;;;;;5051597;28;20323;-77
2022/03/27 06:34:42;;;;;;;;;;;;;;;;;;5053690;28;20004;-80
2022/03/27 06:37:14;;;;;;;;;;;;;;;;;;5051040;28;20307;-81
2022/03/27 06:39:41;;;;;;;;;;;;;;;;;;5053542;28;19951;-79
2022/03/27 06:42:12;;;;;;;;;;;;;;;;;;5051100;28;20668;-77
2022/03/27 06:44:50;;;;;;;;;;;;;;;;;;5053707;28;19969;-82
2022/03/27 06:47:17;;;;;;;;;;;;;;;;;;5052174;28;19949;-80
2022/03/27 06:49:46;;;;;;;;;;;;;;;;;;5051734;28;19959;-78
2022/03/27 06:52:13;;;;;;;;;;;;;;;;;;5053058;28;19945;-78
2022/03/27 06:54:41;;;;;;;;;;;;;;;;;;5051425;28;19958;-77
2022/03/27 06:57:08;;;;;;;;;;;;;;;;;;5051989;28;20332;-78
2022/03/27 07:05:09;;;;;;;;;;;;;;;;;;5052600;28;19967;-80
2022/03/27 07:07:37;;;;;;;;;;;;;;;;;;5052512;28;19950;-77
2022/03/27 07:10:04;;;;;;;;;;;;;;;;;;5100379;22;20000;-75
2022/03/27 07:12:31;;;;;;;;;;;;;;;;;;4994755;28;19956;-76
2022/03/27 07:14:59;;;;;;;;;;;;;;;;;;5008039;28;19955;-77
2022/03/27 07:17:52;;;;;;;;;;;;;;;;;;4998041;28;19952;-74
2022/03/27 07:20:20;;;;;;;;;;;;;;;;;;5011266;28;19983;-75
2022/03/27 07:22:48;;;;;;;;;;;;;;;;;;5012748;28;20021;-75
2022/03/27 07:25:25;;;;;;;;;;;;;;;;;;5013916;28;20305;-75
2022/03/27 07:28:00;;;;;;;;;;;;;;;;;;5011853;28;20333;-75
2022/03/27 07:30:28;;;;;;;;;;;;;;;;;;5012962;28;19948;-75
2022/03/27 07:32:57;;;;;;;;;;;;;;;;;;5007463;28;19967;-75
2022/03/27 07:35:30;;;;;;;;;;;;;;;;;;5006883;28;20073;-76
2022/03/27 07:38:04;;;;;;;;;;;;;;;;;;5013215;28;19947;-76
2022/03/27 07:40:31;;;;;;;;;;;;;;;;;;5015325;28;20030;-74
2022/03/27 07:43:00;;;;;;;;;;;;;;;;;;5012290;28;19989;-76
2022/03/27 07:45:27;;;;;;;;;;;;;;;;;;5008673;28;19946;-75
2022/03/27 07:47:55;;;;;;;;;;;;;;;;;;4996519;28;20063;-76
2022/03/27 07:50:23;;;;;;;;;;;;;;;;;;4994624;28;19954;-75
2022/03/27 07:52:50;;;;;;;;;;;;;;;;;;5011658;28;20033;-75
2022/03/27 07:55:20;;;;;;;;;;;;;;;;;;5013027;28;19953;-76
2022/03/27 07:57:53;;;;;;;;;;;;;;;;;;5007977;28;20040;-74
2022/03/27 08:00:20;;;;;;;;;;;;;;;;;;5009094;28;19954;-74
2022/03/27 08:02:48;;;;;;;;;;;;;;;;;;4990167;28;20039;-75
2022/03/27 08:05:16;;;;;;;;;;;;;;;;;;4993512;28;19954;-74
2022/03/27 08:07:45;;;;;;;;;;;;;;;;;;4991923;28;19984;-74
2022/03/27 08:10:14;;;;;;;;;;;;;;;;;;4992864;28;20013;-75
2022/03/27 08:12:43;;;;;;;;;;;;;;;;;;4991584;28;19995;-75
2022/03/27 08:15:13;;;;;;;;;;;;;;;;;;4993979;28;19999;-74
2022/03/27 08:17:45;;;;;;;;;;;;;;;;;;4995168;28;19941;-75
2022/03/27 08:20:12;;;;;;;;;;;;;;;;;;4995378;28;19945;-75
2022/03/27 08:22:40;;;;;;;;;;;;;;;;;;4995551;28;19988;-75
2022/03/27 08:25:09;;;;;;;;;;;;;;;;;;4996561;28;19957;-75
2022/03/27 08:27:37;;;;;;;;;;;;;;;;;;4996499;28;20067;-74
2022/03/27 08:30:06;;;;;;;;;;;;;;;;;;4996186;28;19952;-75
2022/03/27 08:32:34;;;;;;;;;;;;;;;;;;4995326;28;20022;-75
2022/03/27 08:35:06;;;;;;;;;;;;;;;;;;4995104;28;20163;-74
2022/03/27 08:37:34;;;;;;;;;;;;;;;;;;4995930;28;19951;-75
2022/03/27 08:40:01;;;;;;;;;;;;;;;;;;4996563;28;20041;-75
2022/03/27 08:42:30;;;;;;;;;;;;;;;;;;4995652;28;20039;-74
2022/03/27 08:44:57;;;;;;;;;;;;;;;;;;4996051;28;20049;-73
2022/03/27 08:47:27;;;;;;;;;;;;;;;;;;4995928;28;19948;-75
2022/03/27 08:49:55;;;;;;;;;;;;;;;;;;4994757;28;20415;-74
2022/03/27 08:52:23;;;;;;;;;;;;;;;;;;4995803;28;19942;-74
2022/03/27 08:54:50;;;;;;;;;;;;;;;;;;4995147;28;19966;-74
2022/03/27 08:57:18;;;;;;;;;;;;;;;;;;4994420;28;19956;-74
2022/03/27 08:59:46;;;;;;;;;;;;;;;;;;4996147;28;19967;-74
2022/03/27 09:02:14;;;;;;;;;;;;;;;;;;4994765;28;19959;-74
2022/03/27 09:04:42;;;;;;;;;;;;;;;;;;4994770;28;19956;-74
2022/03/27 09:07:10;;;;;;;;;;;;;;;;;;4994695;28;20121;-74
2022/03/27 09:09:37;;;;;;;;;;;;;;;;;;4995567;28;19946;-74
2022/03/27 09:12:05;;;;;;;;;;;;;;;;;;4995786;28;19996;-73
2022/03/27 09:14:33;;;;;;;;;;;;;;;;;;4995737;28;20034;-74
2022/03/27 09:17:01;;;;;;;;;;;;;;;;;;4994132;28;19946;-74
2022/03/27 09:19:29;;;;;;;;;;;;;;;;;;4994630;28;19946;-74
2022/03/27 09:21:56;;;;;;;;;;;;;;;;;;4995801;28;19948;-74
2022/03/27 09:24:24;;;;;;;;;;;;;;;;;;4995583;28;20362;-74
2022/03/27 09:26:51;;;;;;;;;;;;;;;;;;4995477;28;19948;-73
2022/03/27 09:29:20;;;;;;;;;;;;;;;;;;4994398;28;19946;-73
2022/03/27 09:31:49;;;;;;;;;;;;;;;;;;4995088;28;19989;-74
2022/03/27 09:34:19;;;;;;;;;;;;;;;;;;4994053;28;20036;-74
2022/03/27 09:36:46;;;;;;;;;;;;;;;;;;5006714;28;19955;-74
2022/03/27 09:39:16;;;;;;;;;;;;;;;;;;5014246;28;20038;-74
2022/03/27 09:41:47;;;;;;;;;;;;;;;;;;5029587;28;20375;-74
2022/03/27 09:44:17;;;;;;;;;;;;;;;;;;5013097;28;19946;-73
2022/03/27 09:46:45;;;;;;;;;;;;;;;;;;5014391;28;19961;-73
2022/03/27 09:49:12;;;;;;;;;;;;;;;;;;5014469;28;19957;-74
2022/03/27 09:51:40;;;;;;;;;;;;;;;;;;5014550;28;20452;-74
2022/03/27 09:54:07;;;;;;;;;;;;;;;;;;5014393;28;20044;-73
2022/03/27 09:56:35;;;;;;;;;;;;;;;;;;5000488;28;19953;-74
2022/03/27 09:59:02;;;;;;;;;;;;;;;;;;5006755;28;19954;-73
2022/03/27 10:01:29;;;;;;;;;;;;;;;;;;5014361;28;19950;-73
2022/03/27 10:03:57;;;;;;;;;;;;;;;;;;5014349;28;20405;-74
2022/03/27 10:06:25;;;;;;;;;;;;;;;;;;5012697;28;19972;-73
2022/03/27 10:08:52;;;;;;;;;;;;;;;;;;5028022;28;19961;-73
2022/03/27 10:11:21;;;;;;;;;;;;;;;;;;5014521;28;20328;-74
2022/03/27 10:13:48;;;;;;;;;;;;;;;;;;5005596;28;19953;-74
2022/03/27 10:16:16;;;;;;;;;;;;;;;;;;5014206;28;19952;-74
2022/03/27 10:18:45;;;;;;;;;;;;;;;;;;5013930;28;20002;-74
2022/03/27 10:21:15;;;;;;;;;;;;;;;;;;4996880;28;20295;-74
2022/03/27 10:23:42;;;;;;;;;;;;;;;;;;5012887;28;19953;-73
2022/03/27 10:26:09;;;;;;;;;;;;;;;;;;5013184;28;20060;-73
2022/03/27 10:28:38;;;;;;;;;;;;;;;;;;5014196;28;19950;-75
2022/03/27 10:31:07;;;;;;;;;;;;;;;;;;5013522;28;20319;-73
2022/03/27 10:33:36;;;;;;;;;;;;;;;;;;5013747;28;20429;-73
2022/03/27 10:36:04;;;;;;;;;;;;;;;;;;5013901;28;19962;-73
2022/03/27 10:38:34;;;;;;;;;;;;;;;;;;5014070;28;20384;-73
2022/03/27 10:41:01;;;;;;;;;;;;;;;;;;5013558;28;19953;-74
2022/03/27 10:43:29;;;;;;;;;;;;;;;;;;5013532;28;19955;-73
2022/03/27 10:45:56;;;;;;;;;;;;;;;;;;5013495;28;19946;-74
2022/03/27 10:48:27;;;;;;;;;;;;;;;;;;5013606;28;19959;-75
2022/03/27 10:50:55;;;;;;;;;;;;;;;;;;5013515;28;19988;-74
2022/03/27 10:53:25;;;;;;;;;;;;;;;;;;5013664;28;19952;-74
2022/03/27 10:55:52;;;;;;;;;;;;;;;;;;5012381;28;19947;-74
2022/03/27 10:58:22;;;;;;;;;;;;;;;;;;5012636;28;19950;-74
2022/03/27 11:00:49;;;;;;;;;;;;;;;;;;5013453;28;19969;-74
2022/03/27 11:03:17;;;;;;;;;;;;;;;;;;5013816;28;19958;-74
2022/03/27 11:05:45;;;;;;;;;;;;;;;;;;5012652;28;20052;-74
2022/03/27 11:08:12;;;;;;;;;;;;;;;;;;5011956;28;19975;-73
2022/03/27 11:10:40;;;;;;;;;;;;;;;;;;5011949;28;20008;-75
2022/03/27 11:13:08;;;;;;;;;;;;;;;;;;5012192;28;19955;-73
2022/03/27 11:15:35;;;;;;;;;;;;;;;;;;5013634;28;20290;-74
2022/03/27 11:18:02;;;;;;;;;;;;;;;;;;5013255;28;20762;-74
2022/03/27 11:20:30;;;;;;;;;;;;;;;;;;5012233;28;19954;-74
2022/03/27 11:22:58;;;;;;;;;;;;;;;;;;5013607;28;19944;-74
2022/03/27 11:25:25;;;;;;;;;;;;;;;;;;5012000;28;19951;-73
2022/03/27 11:27:55;;;;;;;;;;;;;;;;;;5012637;28;20053;-73
2022/03/27 11:30:22;;;;;;;;;;;;;;;;;;5013012;28;19957;-74
2022/03/27 11:32:50;;;;;;;;;;;;;;;;;;5013092;28;19958;-74
2022/03/27 11:35:17;;;;;;;;;;;;;;;;;;5012173;28;19938;-73
2022/03/27 11:37:45;;;;;;;;;;;;;;;;;;5012000;28;19949;-73
2022/03/27 11:40:12;;;;;;;;;;;;;;;;;;5028068;28;19961;-74
2022/03/27 11:42:39;;;;;;;;;;;;;;;;;;5012969;28;19943;-74
2022/03/27 11:45:07;;;;;;;;;;;;;;;;;;5013274;28;19953;-74
2022/03/27 11:47:36;;;;;;;;;;;;;;;;;;5013018;28;19941;-74
2022/03/27 11:50:03;;;;;;;;;;;;;;;;;;5027662;28;20411;-74
2022/03/27 11:52:31;;;;;;;;;;;;;;;;;;5015045;28;20493;-74
2022/03/27 11:55:00;;;;;;;;;;;;;;;;;;5016978;28;19956;-74
2022/03/27 11:57:28;;;;;;;;;;;;;;;;;;5015259;28;20468;-74
2022/03/27 11:59:57;;;;;;;;;;;;;;;;;;5016682;28;19965;-74
2022/03/27 12:02:24;;;;;;;;;;;;;;;;;;5016434;28;20027;-74
2022/03/27 12:04:54;;;;;;;;;;;;;;;;;;5016645;28;19949;-74
2022/03/27 12:07:22;;;;;;;;;;;;;;;;;;5016404;28;20345;-74
2022/03/27 12:09:49;;;;;;;;;;;;;;;;;;5031338;28;20399;-74
2022/03/27 12:12:20;;;;;;;;;;;;;;;;;;5015503;28;19956;-74
2022/03/27 12:14:48;;;;;;;;;;;;;;;;;;5016508;28;19947;-75
2022/03/27 12:17:16;;;;;;;;;;;;;;;;;;5015545;28;20014;-75
2022/03/27 12:19:43;;;;;;;;;;;;;;;;;;5014702;28;20478;-75
2022/03/27 12:22:10;;;;;;;;;;;;;;;;;;5015270;28;19952;-75
2022/03/27 12:24:38;;;;;;;;;;;;;;;;;;5015801;28;19990;-74
2022/03/27 12:29:53;;;;;;;;;;;;;;;;;;5012709;28;19952;-75
2022/03/27 12:32:22;;;;;;;;;;;;;;;;;;5014694;28;19996;-75
2022/03/27 12:34:50;;;;;;;;;;;;;;;;;;5013233;28;19989;-75
2022/03/27 12:37:18;;;;;;;;;;;;;;;;;;5015714;28;20067;-74
2022/03/27 12:39:45;;;;;;;;;;;;;;;;;;5015425;28;20442;-74
2022/03/27 12:42:14;;;;;;;;;;;;;;;;;;5015396;28;20493;-75
2022/03/27 12:44:44;;;;;;;;;;;;;;;;;;5008674;28;20005;-74
2022/03/27 12:47:11;;;;;;;;;;;;;;;;;;5013641;28;19953;-75
2022/03/27 12:49:40;;;;;;;;;;;;;;;;;;5011778;28;20049;-75
2022/03/27 12:52:07;;;;;;;;;;;;;;;;;;5014758;28;19962;-75
2022/03/27 12:54:34;;;;;;;;;;;;;;;;;;5007389;28;20287;-75
2022/03/27 12:57:01;;;;;;;;;;;;;;;;;;5013033;28;20353;-76
2022/03/27 12:59:29;;;;;;;;;;;;;;;;;;5014792;28;19950;-75
2022/03/27 13:01:56;;;;;;;;;;;;;;;;;;5015095;28;19969;-75
2022/03/27 13:04:24;;;;;;;;;;;;;;;;;;5015537;28;20459;-74
2022/03/27 13:06:51;;;;;;;;;;;;;;;;;;5011642;28;19949;-74
2022/03/27 13:09:19;;;;;;;;;;;;;;;;;;5013405;28;20413;-75
2022/03/27 13:11:47;;;;;;;;;;;;;;;;;;5015007;28;19956;-74
2022/03/27 13:14:14;;;;;;;;;;;;;;;;;;5013795;28;19950;-75
2022/03/27 13:16:46;;;;;;;;;;;;;;;;;;5015020;28;19957;-75
2022/03/27 13:19:14;;;;;;;;;;;;;;;;;;5014803;28;20037;-75
2022/03/27 13:21:41;;;;;;;;;;;;;;;;;;5014949;28;20035;-75
2022/03/27 13:24:11;;;;;;;;;;;;;;;;;;5014760;28;20408;-74
2022/03/27 13:26:40;;;;;;;;;;;;;;;;;;5014168;28;20002;-75
2022/03/27 13:29:08;;;;;;;;;;;;;;;;;;4996875;28;19950;-75
2022/03/27 13:31:36;;;;;;;;;;;;;;;;;;5013244;28;20312;-75
2022/03/27 13:34:04;;;;;;;;;;;;;;;;;;5012028;28;19956;-75
2022/03/27 13:36:33;;;;;;;;;;;;;;;;;;5013583;28;19947;-75
2022/03/27 13:39:00;;;;;;;;;;;;;;;;;;4996585;28;19948;-75
2022/03/27 13:44:18;;;;;;;;;;;;;;;;;;5005252;28;19959;-75
2022/03/27 13:46:47;;;;;;;;;;;;;;;;;;5029018;28;19950;-75
2022/03/27 13:49:14;;;;;;;;;;;;;;;;;;5014092;28;20417;-75
2022/03/27 13:51:42;;;;;;;;;;;;;;;;;;5013939;28;20062;-75
2022/03/27 13:54:09;;;;;;;;;;;;;;;;;;5014160;28;19951;-76
2022/03/27 13:56:38;;;;;;;;;;;;;;;;;;5013399;28;19952;-79
2022/03/27 13:59:07;;;;;;;;;;;;;;;;;;5007575;28;20670;-67
2022/03/27 14:01:39;;;;;;;;;;;;;;;;;;5012039;28;20049;-68
2022/03/27 14:04:08;;;;;;;;;;;;;;;;;;5012426;28;20005;-68
2022/03/27 14:06:38;;;;;;;;;;;;;;;;;;5008250;28;19950;-71
2022/03/27 14:09:06;;;;;;;;;;;;;;;;;;5026238;28;20042;-69
2022/03/27 14:11:34;;;;;;;;;;;;;;;;;;5004765;28;19948;-67
2022/03/27 14:14:02;;;;;;;;;;;;;;;;;;4999238;28;19970;-68
2022/03/27 14:16:29;;;;;;;;;;;;;;;;;;5005677;28;19951;-67
2022/03/27 14:18:57;;;;;;;;;;;;;;;;;;4994782;28;20004;-69
2022/03/27 14:21:26;;;;;;;;;;;;;;;;;;4997081;28;20375;-70
2022/03/27 14:23:54;;;;;;;;;;;;;;;;;;4996115;28;19960;-70
2022/03/27 14:26:28;;;;;;;;;;;;;;;;;;4995805;28;19970;-68
2022/03/27 14:29:00;;;;;;;;;;;;;;;;;;4995174;28;20008;-68
2022/03/27 14:31:29;;;;;;;;;;;;;;;;;;4988576;28;19964;-69
2022/03/27 14:33:56;;;;;;;;;;;;;;;;;;4994167;28;19960;-70
2022/03/27 14:36:24;;;;;;;;;;;;;;;;;;4993077;28;19952;-71
2022/03/27 14:38:51;;;;;;;;;;;;;;;;;;4993302;28;20376;-67
2022/03/27 14:41:22;;;;;;;;;;;;;;;;;;4998889;28;19957;-71
2022/03/27 14:44:08;;;;;;;;;;;;;;;;;;5006208;28;20465;-68
2022/03/27 14:46:37;;;;;;;;;;;;;;;;;;5012367;28;19956;-71
2022/03/27 14:49:04;;;;;;;;;;;;;;;;;;5013114;28;19959;-70
2022/03/27 14:51:32;;;;;;;;;;;;;;;;;;5010045;28;19959;-69
2022/03/27 14:56:48;;;;;;;;;;;;;;;;;;5012213;28;19949;-70
2022/03/27 14:59:21;;;;;;;;;;;;;;;;;;5013038;28;20034;-68
2022/03/27 15:01:50;;;;;;;;;;;;;;;;;;5013325;28;19958;-69
2022/03/27 15:04:18;;;;;;;;;;;;;;;;;;5012967;28;19997;-71
2022/03/27 15:06:59;;;;;;;;;;;;;;;;;;5011462;28;19965;-67
2022/03/27 15:09:27;;;;;;;;;;;;;;;;;;5013291;28;19959;-71
2022/03/27 15:11:54;;;;;;;;;;;;;;;;;;5013479;28;19950;-67
2022/03/27 15:14:22;;;;;;;;;;;;;;;;;;5013451;28;20298;-67
2022/03/27 15:16:52;;;;;;;;;;;;;;;;;;5013277;28;20045;-71
2022/03/27 15:19:19;;;;;;;;;;;;;;;;;;5011971;28;19960;-69
2022/03/27 15:21:48;;;;;;;;;;;;;;;;;;5012281;28;19974;-69
2022/03/27 15:24:17;;;;;;;;;;;;;;;;;;5015910;28;20313;-70
2022/03/27 15:26:45;;;;;;;;;;;;;;;;;;5014904;28;19955;-71
2022/03/27 15:29:13;;;;;;;;;;;;;;;;;;5031936;28;19957;-68
2022/03/27 15:31:41;;;;;;;;;;;;;;;;;;5023796;28;20411;-72
2022/03/27 15:34:09;;;;;;;;;;;;;;;;;;5025503;28;19965;-72
2022/03/27 15:36:40;;;;;;;;;;;;;;;;;;5016200;28;19948;-71
2022/03/27 15:39:08;;;;;;;;;;;;;;;;;;5016016;28;19952;-71
2022/03/27 15:41:36;;;;;;;;;;;;;;;;;;5017287;28;19953;-71
2022/03/27 15:44:04;;;;;;;;;;;;;;;;;;5021875;28;19957;-71
2022/03/27 15:46:33;;;;;;;;;;;;;;;;;;5010507;28;19951;-72
2022/03/27 15:49:00;;;;;;;;;;;;;;;;;;5012412;28;19957;-72
2022/03/27 15:51:29;;;;;;;;;;;;;;;;;;5010489;28;20003;-68
2022/03/27 15:53:57;;;;;;;;;;;;;;;;;;5017711;28;19953;-67
2022/03/27 15:56:25;;;;;;;;;;;;;;;;;;5031926;28;20003;-68
2022/03/27 15:58:59;;;;;;;;;;;;;;;;;;5034609;28;19947;-71
2022/03/27 16:01:27;;;;;;;;;;;;;;;;;;5024997;28;19961;-71
2022/03/27 16:03:54;;;;;;;;;;;;;;;;;;5015487;28;20381;-67
2022/03/27 16:06:22;;;;;;;;;;;;;;;;;;5016205;28;19986;-68
2022/03/27 16:08:50;;;;;;;;;;;;;;;;;;5016089;28;20373;-71
2022/03/27 16:11:17;;;;;;;;;;;;;;;;;;5011935;28;19947;-71
2022/03/27 16:13:44;;;;;;;;;;;;;;;;;;5021225;28;19952;-68
2022/03/27 16:16:13;;;;;;;;;;;;;;;;;;5023104;28;19966;-71
2022/03/27 16:18:40;;;;;;;;;;;;;;;;;;5004901;28;19945;-71
2022/03/27 16:21:08;;;;;;;;;;;;;;;;;;5022987;28;19950;-67
2022/03/27 16:23:36;;;;;;;;;;;;;;;;;;5019385;28;20047;-70
2022/03/27 16:26:05;;;;;;;;;;;;;;;;;;5014497;28;19953;-69
2022/03/27 16:28:35;;;;;;;;;;;;;;;;;;5015777;28;19948;-71
2022/03/27 16:31:19;;;;;;;;;;;;;;;;;;5012328;28;20360;-69
2022/03/27 16:33:49;;;;;;;;;;;;;;;;;;5013559;28;20393;-71
2022/03/27 16:36:16;;;;;;;;;;;;;;;;;;5014498;28;19966;-68
2022/03/27 16:38:45;;;;;;;;;;;;;;;;;;5007541;28;20006;-71
2022/03/27 16:41:14;;;;;;;;;;;;;;;;;;5008926;28;19942;-68
2022/03/27 16:43:41;;;;;;;;;;;;;;;;;;5015127;28;20030;-72
2022/03/27 16:46:09;;;;;;;;;;;;;;;;;;4995655;28;20442;-72
2022/03/27 16:48:36;;;;;;;;;;;;;;;;;;5011685;28;19948;-68
2022/03/27 16:51:17;;;;;;;;;;;;;;;;;;5002197;28;19950;-69
2022/03/27 16:53:45;;;;;;;;;;;;;;;;;;5006837;28;20478;-68
2022/03/27 16:56:16;;;;;;;;;;;;;;;;;;5023459;28;20079;-68
2022/03/27 16:58:45;;;;;;;;;;;;;;;;;;5015998;28;20433;-68
2022/03/27 17:01:12;;;;;;;;;;;;;;;;;;5024043;28;19963;-71
2022/03/27 17:03:40;;;;;;;;;;;;;;;;;;5014067;28;19953;-70
2022/03/27 17:06:09;;;;;;;;;;;;;;;;;;5012094;28;20376;-68
2022/03/27 17:08:37;;;;;;;;;;;;;;;;;;5013687;28;20454;-67
2022/03/27 17:11:04;;;;;;;;;;;;;;;;;;5013929;28;19962;-69
2022/03/27 17:13:31;;;;;;;;;;;;;;;;;;5010404;28;19962;-69